Time;durP1;ratioP1;P1;durP2;ratioP2;P2;SDS_P1;SDS_P2;PMS_P1;PMS_P2;Temp;Humidity;BMP_temperature;BMP_pressure;BME280_temperature;BME280_humidity;BME280_pressure;Samples;Min_cycle;Max_cycle;Signal;HPM_P1;HPM_P2
2022/07/27 00:01:41;;;;;;;3.83;3.53;;;;;;;-146.72;100.00;64895.28;5086101;28;20495;-74
2022/07/27 00:04:17;;;;;;;7.30;3.13;;;;;;;-146.72;100.00;64895.28;5084982;28;20511;-73
2022/07/27 00:06:44;;;;;;;2.80;2.60;;;;;;;-146.72;100.00;64895.28;5069310;28;20948;-74
2022/07/27 00:09:11;;;;;;;9.50;7.30;;;;;;;-146.72;100.00;64895.28;5070491;28;20455;-73
2022/07/27 00:11:38;;;;;;;8.10;5.33;;;;;;;-146.72;100.00;64895.28;5069059;28;20440;-73
2022/07/27 00:14:05;;;;;;;5.23;4.53;;;;;;;-146.72;100.00;64895.28;5085922;28;20436;-73
2022/07/27 00:16:31;;;;;;;8.53;3.70;;;;;;;-146.72;100.00;64895.28;5068990;28;20547;-74
2022/07/27 00:18:58;;;;;;;3.40;3.10;;;;;;;-146.72;100.00;64895.28;5085867;28;20466;-73
2022/07/27 00:21:25;;;;;;;5.83;4.30;;;;;;;-146.72;100.00;64895.28;5071375;28;20472;-74
2022/07/27 00:23:53;;;;;;;2.80;2.60;;;;;;;-146.72;100.00;64895.28;5065777;28;20475;-73
2022/07/27 00:26:20;;;;;;;5.53;4.00;;;;;;;-146.72;100.00;64895.28;5084887;28;20495;-73
2022/07/27 00:28:47;;;;;;;5.63;4.87;;;;;;;-146.72;100.00;64895.28;5062625;28;20556;-73
2022/07/27 00:31:14;;;;;;;6.10;3.20;;;;;;;-146.72;100.00;64895.28;5055935;28;20432;-73
2022/07/27 00:33:41;;;;;;;3.77;3.33;;;;;;;-146.72;100.00;64895.28;5076840;28;20449;-73
2022/07/27 00:36:08;;;;;;;3.70;3.30;;;;;;;-146.72;100.00;64895.28;5077024;28;20516;-73
2022/07/27 00:38:34;;;;;;;5.00;3.67;;;;;;;-146.72;100.00;64895.28;5075595;28;20429;-73
2022/07/27 00:41:01;;;;;;;3.23;3.03;;;;;;;-146.72;100.00;64895.28;5091669;28;20500;-73
2022/07/27 00:43:28;;;;;;;5.20;3.87;;;;;;;-146.72;100.00;64895.28;5075159;28;20986;-73
2022/07/27 00:45:54;;;;;;;6.00;3.77;;;;;;;-146.72;100.00;64895.28;5075572;28;21036;-73
2022/07/27 00:48:21;;;;;;;3.80;3.50;;;;;;;-146.72;100.00;64895.28;5072393;28;20915;-73
2022/07/27 00:50:49;;;;;;;3.90;3.60;;;;;;;-146.72;100.00;64895.28;5055892;28;20519;-73
2022/07/27 00:53:16;;;;;;;5.57;3.57;;;;;;;-146.72;100.00;64895.28;5084132;28;20989;-73
2022/07/27 00:55:44;;;;;;;4.90;4.50;;;;;;;-146.72;100.00;64895.28;5075507;28;20442;-73
2022/07/27 00:58:11;;;;;;;3.80;3.50;;;;;;;-146.72;100.00;64895.28;5075469;28;20807;-73
2022/07/27 01:00:38;;;;;;;8.23;3.73;;;;;;;-146.72;100.00;64895.28;5075133;28;20476;-73
2022/07/27 01:03:05;;;;;;;4.10;3.77;;;;;;;-146.72;100.00;64895.28;5092203;28;20534;-73
2022/07/27 01:05:36;;;;;;;5.23;4.57;;;;;;;-146.72;100.00;64895.28;5057062;28;20467;-73
2022/07/27 01:08:11;;;;;;;4.10;3.70;;;;;;;-146.72;100.00;64895.28;5071740;28;20527;-73
2022/07/27 01:10:39;;;;;;;4.27;3.87;;;;;;;-146.72;100.00;64895.28;5088516;28;20498;-73
2022/07/27 01:13:06;;;;;;;4.67;4.27;;;;;;;-146.72;100.00;64895.28;5072994;28;20519;-73
2022/07/27 01:15:39;;;;;;;6.63;5.13;;;;;;;-146.72;100.00;64895.28;5081621;28;20528;-73
2022/07/27 01:18:29;;;;;;;7.67;4.70;;;;;;;-146.72;100.00;64895.28;5093217;28;20999;-73
2022/07/27 01:20:57;;;;;;;4.73;4.30;;;;;;;-146.72;100.00;64895.28;5091767;28;21295;-73
2022/07/27 01:23:24;;;;;;;5.10;4.60;;;;;;;-146.72;100.00;64895.28;5074907;28;20860;-73
2022/07/27 01:25:51;;;;;;;10.33;5.00;;;;;;;-146.72;100.00;64895.28;5091866;28;20924;-73
2022/07/27 01:28:18;;;;;;;10.13;5.67;;;;;;;-146.72;100.00;64895.28;5070688;28;20860;-73
2022/07/27 01:30:45;;;;;;;4.43;3.43;;;;;;;-146.72;100.00;64895.28;5072834;28;20459;-73
2022/07/27 01:33:12;;;;;;;5.07;4.20;;;;;;;-146.72;100.00;64895.28;5086996;28;20444;-73
2022/07/27 01:35:39;;;;;;;4.30;3.83;;;;;;;-146.72;100.00;64895.28;5077374;28;20886;-74
2022/07/27 01:38:08;;;;;;;5.10;4.03;;;;;;;-146.72;100.00;64895.28;5071296;28;20955;-73
2022/07/27 01:40:35;;;;;;;5.10;4.70;;;;;;;-146.72;100.00;64895.28;5071028;28;20452;-73
2022/07/27 01:43:04;;;;;;;7.73;4.30;;;;;;;-146.72;100.00;64895.28;5071169;28;20818;-74
2022/07/27 01:45:31;;;;;;;5.87;4.27;;;;;;;-146.72;100.00;64895.28;5087835;28;20519;-74
2022/07/27 01:47:58;;;;;;;6.90;3.50;;;;;;;-146.72;100.00;64895.28;5062306;28;20505;-74
2022/07/27 01:50:24;;;;;;;7.13;4.10;;;;;;;-146.72;100.00;64895.28;5089759;28;20873;-74
2022/07/27 01:52:51;;;;;;;5.37;4.60;;;;;;;-146.72;100.00;64895.28;5070957;28;20452;-74
2022/07/27 01:55:18;;;;;;;3.97;3.67;;;;;;;-146.72;100.00;64895.28;5054258;28;20435;-74
2022/07/27 01:57:45;;;;;;;4.53;3.60;;;;;;;-146.72;100.00;64895.28;5079234;28;20439;-74
2022/07/27 02:00:12;;;;;;;4.47;3.90;;;;;;;-146.72;100.00;64895.28;5074148;28;20990;-74
2022/07/27 02:02:40;;;;;;;9.20;4.43;;;;;;;-146.72;100.00;64895.28;5090855;28;20431;-74
2022/07/27 02:05:10;;;;;;;6.70;4.13;;;;;;;-146.72;100.00;64895.28;5090810;28;20440;-74
2022/07/27 02:07:39;;;;;;;4.73;3.60;;;;;;;-146.72;100.00;64895.28;5090860;28;20434;-74
2022/07/27 02:10:07;;;;;;;4.43;3.40;;;;;;;-146.72;100.00;64895.28;5073942;28;20459;-74
2022/07/27 02:12:36;;;;;;;6.40;3.87;;;;;;;-146.72;100.00;64895.28;5090662;28;20526;-74
2022/07/27 02:15:05;;;;;;;6.10;4.67;;;;;;;-146.72;100.00;64895.28;5073780;28;20444;-74
2022/07/27 02:17:33;;;;;;;6.77;4.10;;;;;;;-146.72;100.00;64895.28;5074100;28;20846;-73
2022/07/27 02:20:01;;;;;;;5.70;3.93;;;;;;;-146.72;100.00;64895.28;5090674;28;20455;-73
2022/07/27 02:22:28;;;;;;;5.03;4.60;;;;;;;-146.72;100.00;64895.28;5090689;28;20495;-73
2022/07/27 02:24:55;;;;;;;7.97;4.63;;;;;;;-146.72;100.00;64895.28;5092325;28;21013;-74
2022/07/27 02:27:22;;;;;;;7.07;4.47;;;;;;;-146.72;100.00;64895.28;5063608;28;20469;-74
2022/07/27 02:29:49;;;;;;;4.23;3.83;;;;;;;-146.72;100.00;64895.28;5072074;28;20515;-73
2022/07/27 02:32:15;;;;;;;7.20;3.97;;;;;;;-146.72;100.00;64895.28;5072623;28;20456;-73
2022/07/27 02:34:43;;;;;;;4.50;3.77;;;;;;;-146.72;100.00;64895.28;5079853;28;20523;-74
2022/07/27 02:37:09;;;;;;;5.57;3.73;;;;;;;-146.72;100.00;64895.28;5082354;28;20432;-73
2022/07/27 02:39:36;;;;;;;4.47;4.03;;;;;;;-146.72;100.00;64895.28;5072253;28;20551;-73
2022/07/27 02:42:03;;;;;;;7.77;5.17;;;;;;;-146.72;100.00;64895.28;5053325;28;20892;-73
2022/07/27 02:44:30;;;;;;;4.37;3.70;;;;;;;-146.72;100.00;64895.28;5063688;28;20469;-73
2022/07/27 02:47:00;;;;;;;11.40;5.57;;;;;;;-146.72;100.00;64895.28;5060581;28;20849;-73
2022/07/27 02:49:27;;;;;;;8.07;4.37;;;;;;;-146.72;100.00;64895.28;5066452;28;20473;-73
2022/07/27 02:51:54;;;;;;;11.23;5.37;;;;;;;-146.72;100.00;64895.28;5050024;28;20517;-73
2022/07/27 02:54:23;;;;;;;7.30;5.00;;;;;;;-146.72;100.00;64895.28;5063554;28;20462;-73
2022/07/27 02:56:51;;;;;;;4.73;4.33;;;;;;;-146.72;100.00;64895.28;5089493;28;20455;-73
2022/07/27 02:59:19;;;;;;;5.90;4.60;;;;;;;-146.72;100.00;64895.28;5069665;28;20456;-73
2022/07/27 03:01:46;;;;;;;11.23;4.97;;;;;;;-146.72;100.00;64895.28;5069635;28;21113;-74
2022/07/27 03:04:13;;;;;;;4.80;4.40;;;;;;;-146.72;100.00;64895.28;5069893;28;20488;-74
2022/07/27 03:06:40;;;;;;;5.40;4.73;;;;;;;-146.72;100.00;64895.28;5053343;28;20482;-73
2022/07/27 03:09:08;;;;;;;7.23;4.33;;;;;;;-146.72;100.00;64895.28;5053077;28;20809;-73
2022/07/27 03:11:35;;;;;;;8.57;5.10;;;;;;;-146.72;100.00;64895.28;5069690;28;20450;-73
2022/07/27 03:14:02;;;;;;;8.60;4.57;;;;;;;-146.72;100.00;64895.28;5069677;28;20440;-74
2022/07/27 03:16:29;;;;;;;7.67;4.50;;;;;;;-146.72;100.00;64895.28;5085460;28;20505;-74
2022/07/27 03:18:58;;;;;;;8.27;6.13;;;;;;;-146.72;100.00;64895.28;5089952;28;21050;-74
2022/07/27 03:21:25;;;;;;;5.73;4.77;;;;;;;-146.72;100.00;64895.28;5072983;28;21421;-74
2022/07/27 03:23:52;;;;;;;9.53;4.67;;;;;;;-146.72;100.00;64895.28;5091569;28;20473;-73
2022/07/27 03:26:19;;;;;;;8.40;5.83;;;;;;;-146.72;100.00;64895.28;5082462;28;20433;-73
2022/07/27 03:28:45;;;;;;;6.10;4.80;;;;;;;-146.72;100.00;64895.28;5059460;28;20564;-73
2022/07/27 03:31:12;;;;;;;6.77;5.40;;;;;;;-146.72;100.00;64895.28;5053324;28;20485;-74
2022/07/27 03:33:39;;;;;;;20.73;5.57;;;;;;;-146.72;100.00;64895.28;5073530;28;20421;-73
2022/07/27 03:36:06;;;;;;;6.80;4.30;;;;;;;-146.72;100.00;64895.28;5073941;28;20483;-73
2022/07/27 03:38:32;;;;;;;7.10;4.50;;;;;;;-146.72;100.00;64895.28;5069304;28;20799;-74
2022/07/27 03:40:59;;;;;;;8.73;5.07;;;;;;;-146.72;100.00;64895.28;5069415;28;20561;-73
2022/07/27 03:43:26;;;;;;;5.67;4.83;;;;;;;-146.72;100.00;64895.28;5069455;28;20436;-74
2022/07/27 03:45:52;;;;;;;6.57;4.90;;;;;;;-146.72;100.00;64895.28;5071021;28;20431;-74
2022/07/27 03:48:19;;;;;;;6.00;4.67;;;;;;;-146.72;100.00;64895.28;5070174;28;20436;-74
2022/07/27 03:50:46;;;;;;;10.50;5.33;;;;;;;-146.72;100.00;64895.28;5053370;28;20527;-73
2022/07/27 03:53:13;;;;;;;9.73;5.20;;;;;;;-146.72;100.00;64895.28;5070001;28;20466;-73
2022/07/27 03:55:40;;;;;;;8.43;5.37;;;;;;;-146.72;100.00;64895.28;5086519;28;20448;-74
2022/07/27 03:58:06;;;;;;;5.27;4.77;;;;;;;-146.72;100.00;64895.28;5073784;28;20959;-74
2022/07/27 04:00:33;;;;;;;9.80;5.50;;;;;;;-146.72;100.00;64895.28;5073482;28;20543;-74
2022/07/27 04:03:00;;;;;;;6.13;4.53;;;;;;;-146.72;100.00;64895.28;5073385;28;20529;-74
2022/07/27 04:05:27;;;;;;;8.27;4.53;;;;;;;-146.72;100.00;64895.28;5074591;28;20426;-74
2022/07/27 04:07:55;;;;;;;5.87;5.07;;;;;;;-146.72;100.00;64895.28;5073350;28;20545;-73
2022/07/27 04:10:23;;;;;;;9.87;5.47;;;;;;;-146.72;100.00;64895.28;5073385;28;20538;-73
2022/07/27 04:12:55;;;;;;;7.60;5.00;;;;;;;-146.72;100.00;64895.28;5073675;28;21042;-74
2022/07/27 04:15:22;;;;;;;5.40;4.47;;;;;;;-146.72;100.00;64895.28;5054333;28;20433;-73
2022/07/27 04:17:49;;;;;;;7.43;5.00;;;;;;;-146.72;100.00;64895.28;5055389;28;20441;-74
2022/07/27 04:20:22;;;;;;;6.93;5.27;;;;;;;-146.72;100.00;64895.28;5069011;28;20467;-74
2022/07/27 04:22:49;;;;;;;5.33;4.83;;;;;;;-146.72;100.00;64895.28;5096505;28;20451;-73
2022/07/27 04:25:16;;;;;;;6.23;5.63;;;;;;;-146.72;100.00;64895.28;5083705;28;20449;-74
2022/07/27 04:27:43;;;;;;;7.53;5.03;;;;;;;-146.72;100.00;64895.28;5069984;28;20428;-73
2022/07/27 04:30:10;;;;;;;6.13;5.20;;;;;;;-146.72;100.00;64895.28;5089702;28;20510;-74
2022/07/27 04:32:37;;;;;;;6.20;5.37;;;;;;;-146.72;100.00;64895.28;5089782;28;20471;-74
2022/07/27 04:35:06;;;;;;;5.83;5.33;;;;;;;-146.72;100.00;64895.28;5072745;28;20429;-74
2022/07/27 04:37:33;;;;;;;5.70;5.20;;;;;;;-146.72;100.00;64895.28;5056035;28;20841;-74
2022/07/27 04:40:00;;;;;;;5.90;5.40;;;;;;;-146.72;100.00;64895.28;5089438;28;20482;-73
2022/07/27 04:42:28;;;;;;;4.73;4.33;;;;;;;-146.72;100.00;64895.28;5055958;28;20491;-74
2022/07/27 04:44:55;;;;;;;5.67;5.17;;;;;;;-146.72;100.00;64895.28;5072671;28;20511;-74
2022/07/27 04:47:22;;;;;;;6.43;4.60;;;;;;;-146.72;100.00;64895.28;5072635;28;20475;-74
2022/07/27 04:49:49;;;;;;;5.43;5.00;;;;;;;-146.72;100.00;64895.28;5082400;28;20539;-74
2022/07/27 04:52:16;;;;;;;4.93;4.50;;;;;;;-146.72;100.00;64895.28;5092653;28;20435;-74
2022/07/27 04:54:44;;;;;;;5.53;5.03;;;;;;;-146.72;100.00;64895.28;5092929;28;20517;-74
2022/07/27 04:57:11;;;;;;;7.20;5.20;;;;;;;-146.72;100.00;64895.28;5076219;28;20467;-74
2022/07/27 04:59:37;;;;;;;5.90;5.30;;;;;;;-146.72;100.00;64895.28;5082330;28;20987;-74
2022/07/27 05:02:04;;;;;;;4.93;4.53;;;;;;;-146.72;100.00;64895.28;5092582;28;21053;-74
2022/07/27 05:04:31;;;;;;;5.77;5.07;;;;;;;-146.72;100.00;64895.28;5075793;28;20478;-74
2022/07/27 05:06:57;;;;;;;5.67;5.07;;;;;;;-146.72;100.00;64895.28;5075586;28;20477;-74
2022/07/27 05:09:24;;;;;;;6.23;5.73;;;;;;;-146.72;100.00;64895.28;5075382;28;20459;-74
2022/07/27 05:11:55;;;;;;;5.33;4.93;;;;;;;-146.72;100.00;64895.28;5075688;28;20435;-74
2022/07/27 05:14:26;;;;;;;4.90;4.40;;;;;;;-146.72;100.00;64895.28;5072076;28;20448;-74
2022/07/27 05:16:52;;;;;;;4.73;4.03;;;;;;;-146.72;100.00;64895.28;5073639;28;20542;-74
2022/07/27 05:19:19;;;;;;;5.43;5.03;;;;;;;-146.72;100.00;64895.28;5093663;28;20444;-74
2022/07/27 05:21:46;;;;;;;6.77;6.13;;;;;;;-146.72;100.00;64895.28;5092127;28;20545;-74
2022/07/27 05:24:12;;;;;;;5.10;4.70;;;;;;;-146.72;100.00;64895.28;5092137;28;20481;-73
2022/07/27 05:26:39;;;;;;;6.97;5.03;;;;;;;-146.72;100.00;64895.28;5068189;28;20454;-74
2022/07/27 05:29:06;;;;;;;6.90;5.13;;;;;;;-146.72;100.00;64895.28;5054112;28;20461;-74
2022/07/27 05:31:32;;;;;;;6.13;5.37;;;;;;;-146.72;100.00;64895.28;5074788;28;20435;-73
2022/07/27 05:33:59;;;;;;;5.63;4.97;;;;;;;-146.72;100.00;64895.28;5092092;28;20431;-74
2022/07/27 05:36:26;;;;;;;4.50;4.13;;;;;;;-146.72;100.00;64895.28;5064705;28;20545;-76
2022/07/27 05:38:53;;;;;;;4.40;4.10;;;;;;;-146.72;100.00;64895.28;5086364;28;20507;-74
2022/07/27 05:41:24;;;;;;;8.13;5.53;;;;;;;-146.72;100.00;64895.28;5078594;28;20478;-74
2022/07/27 05:43:53;;;;;;;8.73;5.97;;;;;;;-146.72;100.00;64895.28;5093054;28;20427;-74
2022/07/27 05:46:21;;;;;;;5.60;5.20;;;;;;;-146.72;100.00;64895.28;5091774;28;20474;-74
2022/07/27 05:48:48;;;;;;;7.60;4.53;;;;;;;-146.72;100.00;64895.28;5091499;28;20473;-74
2022/07/27 05:51:15;;;;;;;5.70;4.93;;;;;;;-146.72;100.00;64895.28;5093068;28;20428;-74
2022/07/27 05:53:42;;;;;;;5.20;4.80;;;;;;;-146.72;100.00;64895.28;5091633;28;20481;-76
2022/07/27 05:56:09;;;;;;;5.10;4.70;;;;;;;-146.72;100.00;64895.28;5075146;28;20428;-76
2022/07/27 05:58:35;;;;;;;4.70;4.30;;;;;;;-146.72;100.00;64895.28;5075288;28;20439;-76
2022/07/27 06:01:02;;;;;;;4.77;4.37;;;;;;;-146.72;100.00;64895.28;5082078;28;20480;-75
2022/07/27 06:03:29;;;;;;;4.80;4.40;;;;;;;-146.72;100.00;64895.28;5073620;28;20464;-75
2022/07/27 06:08:53;;;;;;;5.90;5.37;;;;;;;-146.72;100.00;64895.28;5022362;28;20466;-75
2022/07/27 06:11:20;;;;;;;5.67;5.17;;;;;;;-146.72;100.00;64895.28;5071361;28;20449;-75
2022/07/27 06:13:47;;;;;;;5.50;4.97;;;;;;;-146.72;100.00;64895.28;5071562;28;20437;-75
2022/07/27 06:16:13;;;;;;;5.33;4.90;;;;;;;-146.72;100.00;64895.28;5086163;28;20455;-75
2022/07/27 06:18:40;;;;;;;5.40;5.00;;;;;;;-146.72;100.00;64895.28;5079688;28;20937;-75
2022/07/27 06:21:07;;;;;;;6.30;4.90;;;;;;;-146.72;100.00;64895.28;5079799;28;20429;-75
2022/07/27 06:23:33;;;;;;;5.47;4.97;;;;;;;-146.72;100.00;64895.28;5080788;28;20467;-75
2022/07/27 06:26:00;;;;;;;5.50;5.00;;;;;;;-146.72;100.00;64895.28;5062806;28;20465;-75
2022/07/27 06:28:27;;;;;;;5.93;5.33;;;;;;;-146.72;100.00;64895.28;5088420;28;20439;-74
2022/07/27 06:30:53;;;;;;;5.60;5.10;;;;;;;-146.72;100.00;64895.28;5100304;28;20443;-75
2022/07/27 06:33:30;;;;;;;5.20;4.87;;;;;;;-146.72;100.00;64895.28;5087921;28;21004;-73
2022/07/27 06:35:59;;;;;;;5.17;4.77;;;;;;;-146.72;100.00;64895.28;5075264;28;20416;-73
2022/07/27 06:38:27;;;;;;;6.77;5.73;;;;;;;-146.72;100.00;64895.28;5071730;28;20427;-73
2022/07/27 06:40:55;;;;;;;6.10;5.60;;;;;;;-146.72;100.00;64895.28;5071720;28;20428;-73
2022/07/27 06:43:25;;;;;;;5.23;4.83;;;;;;;-146.72;100.00;64895.28;5070527;28;20464;-73
2022/07/27 06:45:53;;;;;;;5.20;4.90;;;;;;;-146.72;100.00;64895.28;5083868;28;20872;-73
2022/07/27 06:48:20;;;;;;;5.23;4.77;;;;;;;-146.72;100.00;64895.28;5087302;28;20437;-73
2022/07/27 06:50:48;;;;;;;5.03;4.63;;;;;;;-146.72;100.00;64895.28;5057053;28;20439;-72
2022/07/27 06:53:15;;;;;;;5.77;5.30;;;;;;;-146.72;100.00;64895.28;5054163;28;20520;-73
2022/07/27 06:55:47;;;;;;;6.33;5.73;;;;;;;-146.72;100.00;64895.28;5070672;28;20447;-73
2022/07/27 06:58:31;;;;;;;5.93;5.40;;;;;;;-146.72;100.00;64895.28;5070530;28;20467;-73
2022/07/27 07:01:00;;;;;;;5.10;4.70;;;;;;;-146.72;100.00;64895.28;5050520;28;20437;-73
2022/07/27 07:03:28;;;;;;;6.50;5.87;;;;;;;-146.72;100.00;64895.28;5052058;28;20453;-73
2022/07/27 07:05:55;;;;;;;5.47;4.90;;;;;;;-146.72;100.00;64895.28;5055014;28;20807;-73
2022/07/27 07:08:22;;;;;;;5.47;4.97;;;;;;;-146.72;100.00;64895.28;5053795;28;20490;-73
2022/07/27 07:10:49;;;;;;;5.07;4.70;;;;;;;-146.72;100.00;64895.28;5070055;28;20478;-73
2022/07/27 07:13:16;;;;;;;5.40;4.97;;;;;;;-146.72;100.00;64895.28;5070178;28;20437;-75
2022/07/27 07:15:43;;;;;;;6.60;6.07;;;;;;;-146.72;100.00;64895.28;5054073;28;21030;-75
2022/07/27 07:18:11;;;;;;;6.00;5.40;;;;;;;-146.72;100.00;64895.28;5052909;28;20503;-75
2022/07/27 07:20:38;;;;;;;5.80;5.30;;;;;;;-146.72;100.00;64895.28;5090394;28;20505;-75
2022/07/27 07:23:06;;;;;;;6.57;6.07;;;;;;;-146.72;100.00;64895.28;5074690;28;20551;-75
2022/07/27 07:25:34;;;;;;;6.77;5.43;;;;;;;-146.72;100.00;64895.28;5080692;28;20431;-75
2022/07/27 07:28:01;;;;;;;5.83;5.13;;;;;;;-146.72;100.00;64895.28;5077987;28;20473;-75
2022/07/27 07:30:28;;;;;;;5.57;5.17;;;;;;;-146.72;100.00;64895.28;5074975;28;21040;-75
2022/07/27 07:32:55;;;;;;;5.63;5.13;;;;;;;-146.72;100.00;64895.28;5060767;28;20515;-75
2022/07/27 07:35:22;;;;;;;9.17;6.80;;;;;;;-146.72;100.00;64895.28;5081687;28;20420;-75
2022/07/27 07:37:49;;;;;;;7.27;6.77;;;;;;;-146.72;100.00;64895.28;5054039;28;20438;-75
2022/07/27 07:40:18;;;;;;;6.57;6.07;;;;;;;-146.72;100.00;64895.28;5064958;28;21000;-75
2022/07/27 07:43:05;;;;;;;9.80;7.90;;;;;;;-146.72;100.00;64895.28;5063790;28;20474;-75
2022/07/27 07:45:36;;;;;;;6.73;6.17;;;;;;;-146.72;100.00;64895.28;5074024;28;20420;-75
2022/07/27 07:48:15;;;;;;;6.80;6.10;;;;;;;-146.72;100.00;64895.28;5080991;28;20429;-76
2022/07/27 07:50:42;;;;;;;7.00;6.30;;;;;;;-146.72;100.00;64895.28;5070661;28;20908;-76
2022/07/27 07:53:09;;;;;;;7.40;6.80;;;;;;;-146.72;100.00;64895.28;5074069;28;20481;-76
2022/07/27 07:55:39;;;;;;;5.97;5.43;;;;;;;-146.72;100.00;64895.28;5060434;28;20459;-75
2022/07/27 07:58:06;;;;;;;7.37;6.77;;;;;;;-146.72;100.00;64895.28;5074253;28;20440;-75
2022/07/27 08:00:42;;;;;;;6.53;5.97;;;;;;;-146.72;100.00;64895.28;5075770;28;20444;-75
2022/07/27 08:03:18;;;;;;;9.37;8.53;;;;;;;-146.72;100.00;64895.28;5075763;28;20448;-75
2022/07/27 08:05:46;;;;;;;8.97;7.50;;;;;;;-146.72;100.00;64895.28;5060655;28;20838;-75
2022/07/27 08:08:12;;;;;;;9.40;8.57;;;;;;;-146.72;100.00;64895.28;5075120;28;20432;-75
2022/07/27 08:10:39;;;;;;;10.40;9.50;;;;;;;-146.72;100.00;64895.28;5073645;28;20490;-74
2022/07/27 08:13:07;;;;;;;10.23;9.27;;;;;;;-146.72;100.00;64895.28;5070781;28;20431;-75
2022/07/27 08:15:34;;;;;;;8.90;8.10;;;;;;;-146.72;100.00;64895.28;5073535;28;20501;-75
2022/07/27 08:18:03;;;;;;;7.53;6.93;;;;;;;-146.72;100.00;64895.28;5073535;28;20440;-75
2022/07/27 08:20:30;;;;;;;8.50;7.87;;;;;;;-146.72;100.00;64895.28;5073307;28;20533;-75
2022/07/27 08:22:57;;;;;;;10.17;9.27;;;;;;;-146.72;100.00;64895.28;5074984;28;20525;-74
2022/07/27 08:25:24;;;;;;;8.30;7.60;;;;;;;-146.72;100.00;64895.28;5074862;28;20432;-75
2022/07/27 08:27:50;;;;;;;7.30;6.70;;;;;;;-146.72;100.00;64895.28;5072693;28;20468;-75
2022/07/27 08:30:18;;;;;;;7.17;6.67;;;;;;;-146.72;100.00;64895.28;5073041;28;20459;-75
2022/07/27 08:32:52;;;;;;;8.33;6.90;;;;;;;-146.72;100.00;64895.28;5056185;28;20432;-75
2022/07/27 08:35:19;;;;;;;7.47;6.87;;;;;;;-146.72;100.00;64895.28;5063103;28;20936;-75
2022/07/27 08:37:47;;;;;;;6.77;6.27;;;;;;;-146.72;100.00;64895.28;5077605;28;20874;-75
2022/07/27 08:40:14;;;;;;;6.60;6.20;;;;;;;-146.72;100.00;64895.28;5076771;28;20779;-75
2022/07/27 08:43:01;;;;;;;7.03;6.40;;;;;;;-146.72;100.00;64895.28;5045691;28;20535;-74
2022/07/27 08:45:31;;;;;;;7.30;6.60;;;;;;;-146.72;100.00;64895.28;5074232;28;20978;-75
2022/07/27 08:47:58;;;;;;;7.53;6.83;;;;;;;-146.72;100.00;64895.28;5085871;28;20439;-75
2022/07/27 08:50:28;;;;;;;7.53;6.93;;;;;;;-146.72;100.00;64895.28;5074427;28;20440;-75
2022/07/27 08:53:07;;;;;;;7.53;6.70;;;;;;;-146.72;100.00;64895.28;5083237;28;20429;-75
2022/07/27 08:55:37;;;;;;;8.20;7.40;;;;;;;-146.72;100.00;64895.28;5052813;28;20943;-75
2022/07/27 08:58:06;;;;;;;7.00;6.17;;;;;;;-146.72;100.00;64895.28;5063352;28;20436;-75
2022/07/27 09:00:34;;;;;;;7.60;6.97;;;;;;;-146.72;100.00;64895.28;5055066;28;20457;-75
2022/07/27 09:03:01;;;;;;;6.37;5.97;;;;;;;-146.72;100.00;64895.28;5064941;28;20498;-74
2022/07/27 09:05:29;;;;;;;7.83;7.07;;;;;;;-146.72;100.00;64895.28;5087604;28;20440;-75
2022/07/27 09:08:15;;;;;;;7.63;7.03;;;;;;;-146.72;100.00;64895.28;5089448;28;20498;-74
2022/07/27 09:10:42;;;;;;;6.70;6.10;;;;;;;-146.72;100.00;64895.28;5039163;28;20450;-75
2022/07/27 09:13:19;;;;;;;7.57;7.07;;;;;;;-146.72;100.00;64895.28;5071755;28;20447;-75
2022/07/27 09:15:55;;;;;;;6.60;6.10;;;;;;;-146.72;100.00;64895.28;5055320;28;20483;-74
2022/07/27 09:18:42;;;;;;;7.93;7.30;;;;;;;-146.72;100.00;64895.28;5079457;28;20976;-75
2022/07/27 09:21:20;;;;;;;5.20;4.90;;;;;;;-146.72;100.00;64895.28;5075444;28;20483;-74
2022/07/27 09:23:53;;;;;;;4.80;4.40;;;;;;;-146.72;100.00;64895.28;5075487;28;20512;-74
2022/07/27 09:26:22;;;;;;;5.17;4.67;;;;;;;-146.72;100.00;64895.28;5059403;28;20987;-75
2022/07/27 09:29:10;;;;;;;4.73;4.20;;;;;;;-146.72;100.00;64895.28;5072096;28;20492;-75
2022/07/27 09:31:46;;;;;;;4.53;4.23;;;;;;;-146.72;100.00;64895.28;5072188;28;20415;-75
2022/07/27 09:34:27;;;;;;;4.30;4.00;;;;;;;-146.72;100.00;64895.28;5069217;28;20438;-75
2022/07/27 09:36:56;;;;;;;4.20;3.90;;;;;;;-146.72;100.00;64895.28;5055431;28;20440;-74
2022/07/27 09:39:26;;;;;;;8.03;5.20;;;;;;;-146.72;100.00;64895.28;5068228;28;20462;-75
2022/07/27 09:41:55;;;;;;;4.77;4.43;;;;;;;-146.72;100.00;64895.28;5062510;28;20432;-75
2022/07/27 09:44:34;;;;;;;4.23;3.93;;;;;;;-146.72;100.00;64895.28;5071387;28;20456;-75
2022/07/27 09:47:42;;;;;;;5.13;4.63;;;;;;;-146.72;100.00;64895.28;5071658;28;20409;-74
2022/07/27 09:50:26;;;;;;;3.40;3.10;;;;;;;-146.72;100.00;64895.28;5018876;28;20461;-75
2022/07/27 09:53:11;;;;;;;3.30;3.10;;;;;;;-146.72;100.00;64895.28;5044365;28;20523;-75
2022/07/27 09:56:05;;;;;;;3.70;3.40;;;;;;;-146.72;100.00;64895.28;5064202;28;20519;-75
2022/07/27 09:58:44;;;;;;;4.27;3.13;;;;;;;-146.72;100.00;64895.28;5091389;28;20430;-75
2022/07/27 10:01:26;;;;;;;3.40;3.20;;;;;;;-146.72;100.00;64895.28;5064626;28;20486;-75
2022/07/27 10:03:55;;;;;;;5.07;3.90;;;;;;;-146.72;100.00;64895.28;5073898;28;20460;-74
2022/07/27 10:06:24;;;;;;;4.30;4.00;;;;;;;-146.72;100.00;64895.28;5058510;28;20491;-74
2022/07/27 10:08:53;;;;;;;4.40;4.20;;;;;;;-146.72;100.00;64895.28;5070466;28;20441;-74
2022/07/27 10:11:22;;;;;;;4.10;3.70;;;;;;;-146.72;100.00;64895.28;5057269;28;20845;-75
2022/07/27 10:13:50;;;;;;;4.23;3.90;;;;;;;-146.72;100.00;64895.28;5052334;28;20453;-75
2022/07/27 10:16:20;;;;;;;5.30;4.90;;;;;;;-146.72;100.00;64895.28;5078081;28;20477;-75
2022/07/27 10:19:02;;;;;;;5.17;4.63;;;;;;;-146.72;100.00;64895.28;5087437;28;20973;-75
2022/07/27 10:21:36;;;;;;;7.40;4.97;;;;;;;-146.72;100.00;64895.28;5058956;28;20431;-75
2022/07/27 10:24:21;;;;;;;6.20;4.97;;;;;;;-146.72;100.00;64895.28;5090944;28;20455;-74
2022/07/27 10:26:48;;;;;;;6.37;5.87;;;;;;;-146.72;100.00;64895.28;5066159;28;20528;-74
2022/07/27 10:29:20;;;;;;;6.10;4.77;;;;;;;-146.72;100.00;64895.28;5056958;28;20446;-74
2022/07/27 10:31:52;;;;;;;5.77;5.30;;;;;;;-146.72;100.00;64895.28;5061968;28;20485;-75
2022/07/27 10:34:33;;;;;;;6.23;5.30;;;;;;;-146.72;100.00;64895.28;5088117;28;20431;-75
2022/07/27 10:37:16;;;;;;;4.53;4.23;;;;;;;-146.72;100.00;64895.28;5070422;28;20455;-75
2022/07/27 10:39:51;;;;;;;6.10;5.50;;;;;;;-146.72;100.00;64895.28;5040464;28;20547;-75
2022/07/27 10:42:19;;;;;;;6.33;5.83;;;;;;;-146.72;100.00;64895.28;5051133;28;20475;-74
2022/07/27 10:45:12;;;;;;;6.23;5.73;;;;;;;-146.72;100.00;64895.28;5078246;28;21052;-74
2022/07/27 10:47:43;;;;;;;5.97;5.40;;;;;;;-146.72;100.00;64895.28;5082142;28;20467;-74
2022/07/27 10:50:16;;;;;;;5.40;5.00;;;;;;;-146.72;100.00;64895.28;5073487;28;20443;-74
2022/07/27 10:52:43;;;;;;;5.40;5.00;;;;;;;-146.72;100.00;64895.28;5050064;28;20835;-74
2022/07/27 10:55:28;;;;;;;5.40;4.90;;;;;;;-146.72;100.00;64895.28;5063517;28;20440;-74
2022/07/27 10:57:56;;;;;;;6.00;4.37;;;;;;;-146.72;100.00;64895.28;5071226;28;20958;-74
2022/07/27 11:00:48;;;;;;;4.90;4.50;;;;;;;-146.72;100.00;64895.28;5069648;28;20453;-74
2022/07/27 11:03:23;;;;;;;4.27;3.83;;;;;;;-146.72;100.00;64895.28;5068281;28;20986;-75
2022/07/27 11:06:11;;;;;;;4.57;4.27;;;;;;;-146.72;100.00;64895.28;5091109;28;20820;-75
2022/07/27 11:09:01;;;;;;;4.10;3.80;;;;;;;-146.72;100.00;64895.28;5056882;28;20448;-75
2022/07/27 11:11:48;;;;;;;4.13;3.83;;;;;;;-146.72;100.00;64895.28;5070977;28;20421;-75
2022/07/27 11:14:15;;;;;;;4.33;3.93;;;;;;;-146.72;100.00;64895.28;5071175;28;20416;-75
2022/07/27 11:16:45;;;;;;;4.67;4.10;;;;;;;-146.72;100.00;64895.28;5084436;28;21003;-75
2022/07/27 11:19:23;;;;;;;4.23;3.83;;;;;;;-146.72;100.00;64895.28;5054640;28;20502;-75
2022/07/27 11:21:52;;;;;;;5.00;4.13;;;;;;;-146.72;100.00;64895.28;5056128;28;20451;-75
2022/07/27 11:24:19;;;;;;;9.70;4.17;;;;;;;-146.72;100.00;64895.28;5052920;28;20484;-75